createdAt,value
2018-03-11T00:00:55.615Z,14.60
2018-03-11T00:01:55.587Z,14.60
2018-03-11T00:02:55.566Z,15.30
2018-03-11T00:03:55.550Z,15.60
2018-03-11T00:04:55.526Z,15.50
2018-03-11T00:05:55.510Z,15.70
2018-03-11T00:06:55.489Z,15.70
2018-03-11T00:07:55.569Z,15.20
2018-03-11T00:08:55.453Z,14.80
2018-03-11T00:09:55.444Z,14.60
2018-03-11T00:10:55.408Z,14.30
2018-03-11T00:11:55.391Z,14.50
2018-03-11T00:12:55.370Z,15.20
2018-03-11T00:13:55.502Z,15.50
2018-03-11T00:14:55.335Z,17.10
2018-03-11T00:15:55.413Z,18.50
2018-03-11T00:16:55.290Z,17.40
2018-03-11T00:17:55.274Z,17.10
2018-03-11T00:18:55.260Z,17.00
2018-03-11T00:19:55.235Z,17.80
2018-03-11T00:20:55.212Z,16.80
2018-03-11T00:21:55.202Z,16.80
2018-03-11T00:22:55.175Z,16.20
2018-03-11T00:23:55.204Z,16.10
2018-03-11T00:24:55.129Z,17.60
2018-03-11T00:25:55.180Z,17.00
2018-03-11T00:26:55.090Z,15.70
2018-03-11T00:27:55.071Z,16.40
2018-03-11T00:28:55.051Z,16.30
2018-03-11T00:29:55.063Z,16.00
2018-03-11T00:30:55.009Z,15.60
2018-03-11T00:31:55.064Z,15.70
2018-03-11T00:32:54.971Z,15.50
2018-03-11T00:33:54.954Z,14.80
2018-03-11T00:34:54.931Z,15.10
2018-03-11T00:35:54.923Z,14.60
2018-03-11T00:36:54.890Z,13.10
2018-03-11T00:37:54.870Z,13.70
2018-03-11T00:38:54.851Z,12.70
2018-03-11T00:39:54.830Z,11.40
2018-03-11T00:40:54.816Z,12.90
2018-03-11T00:41:54.794Z,11.80
2018-03-11T00:42:54.767Z,11.80
2018-03-11T00:43:54.749Z,13.10
2018-03-11T00:44:54.729Z,12.00
2018-03-11T00:45:54.709Z,12.10
2018-03-11T00:46:54.693Z,11.10
2018-03-11T00:47:54.668Z,12.40
2018-03-11T00:48:54.649Z,11.30
2018-03-11T00:49:54.632Z,12.70
2018-03-11T00:50:54.614Z,13.70
2018-03-11T00:51:54.591Z,12.80
2018-03-11T00:52:54.572Z,12.10
2018-03-11T00:53:54.549Z,12.30
2018-03-11T00:54:54.530Z,11.70
2018-03-11T00:55:54.509Z,12.00
2018-03-11T00:56:54.489Z,12.20
2018-03-11T00:57:54.472Z,11.40
2018-03-11T00:58:54.447Z,11.00
2018-03-11T00:59:54.431Z,11.20
2018-03-11T01:00:54.406Z,10.80
2018-03-11T01:01:54.390Z,11.50
2018-03-11T01:02:54.367Z,11.80
2018-03-11T01:03:54.348Z,12.80
2018-03-11T01:04:54.328Z,12.20
2018-03-11T01:05:54.308Z,14.40
2018-03-11T01:06:54.285Z,13.30
2018-03-11T01:07:54.266Z,15.70
2018-03-11T01:08:54.247Z,14.60
2018-03-11T01:09:54.235Z,14.50
2018-03-11T01:10:54.206Z,15.10
2018-03-11T01:11:54.187Z,14.10
2018-03-11T01:12:54.167Z,14.00
2018-03-11T01:13:54.159Z,14.50
2018-03-11T01:14:54.130Z,19.10
2018-03-11T01:15:54.104Z,21.00
2018-03-11T01:16:54.092Z,19.70
2018-03-11T01:17:54.069Z,20.30
2018-03-11T01:18:54.052Z,23.90
2018-03-11T01:19:54.026Z,17.40
2018-03-11T01:20:54.004Z,13.70
2018-03-11T01:21:53.987Z,14.40
2018-03-11T01:22:53.964Z,16.80
2018-03-11T01:23:53.948Z,14.70
2018-03-11T01:24:53.925Z,13.70
2018-03-11T01:25:53.907Z,15.00
2018-03-11T01:26:53.883Z,20.30
2018-03-11T01:27:53.864Z,22.20
2018-03-11T01:28:53.847Z,16.80
2018-03-11T01:29:53.825Z,14.20
2018-03-11T01:30:53.804Z,12.80
2018-03-11T01:31:53.782Z,13.10
2018-03-11T01:32:53.763Z,12.50
2018-03-11T01:33:53.742Z,13.00
2018-03-11T01:34:53.724Z,13.60
2018-03-11T01:35:53.702Z,14.90
2018-03-11T01:36:53.689Z,17.00
2018-03-11T01:37:53.663Z,14.00
2018-03-11T01:38:53.644Z,14.00
2018-03-11T01:39:53.622Z,13.30
2018-03-11T01:40:53.602Z,13.10
2018-03-11T01:41:53.583Z,13.40
2018-03-11T01:42:53.559Z,14.50
2018-03-11T01:43:53.544Z,12.90
2018-03-11T01:44:53.518Z,14.40
2018-03-11T01:45:53.502Z,12.60
2018-03-11T01:46:53.482Z,13.60
2018-03-11T01:47:53.465Z,13.10
2018-03-11T01:48:53.439Z,13.00
2018-03-11T01:49:53.421Z,13.00
2018-03-11T01:50:53.407Z,15.20
2018-03-11T01:51:53.381Z,12.90
2018-03-11T01:52:53.362Z,13.30
2018-03-11T01:53:53.344Z,12.40
2018-03-11T01:54:53.322Z,12.40
2018-03-11T01:55:53.297Z,12.90
2018-03-11T01:56:53.279Z,12.30
2018-03-11T01:57:53.258Z,12.00
2018-03-11T01:58:53.249Z,12.00
2018-03-11T01:59:53.217Z,11.50
2018-03-11T02:00:53.202Z,10.40
2018-03-11T02:01:53.178Z,11.90
2018-03-11T02:02:53.164Z,12.80
2018-03-11T02:03:53.137Z,12.20
2018-03-11T02:04:53.122Z,12.20
2018-03-11T02:05:53.099Z,12.30
2018-03-11T02:06:53.076Z,12.30
2018-03-11T02:07:53.059Z,12.60
2018-03-11T02:08:53.037Z,12.90
2018-03-11T02:09:53.021Z,13.10
2018-03-11T02:10:52.997Z,13.20
2018-03-11T02:11:52.981Z,13.50
2018-03-11T02:12:52.965Z,12.70
2018-03-11T02:13:52.952Z,12.20
2018-03-11T02:14:52.915Z,12.60
2018-03-11T02:15:52.895Z,13.00
2018-03-11T02:16:52.877Z,12.70
2018-03-11T02:17:52.858Z,12.20
2018-03-11T02:18:52.845Z,12.10
2018-03-11T02:19:52.815Z,13.80
2018-03-11T02:20:52.799Z,12.90
2018-03-11T02:21:52.774Z,12.70
2018-03-11T02:22:52.754Z,13.20
2018-03-11T02:23:52.735Z,12.50
2018-03-11T02:24:52.716Z,12.80
2018-03-11T02:25:52.706Z,13.00
2018-03-11T02:26:52.673Z,13.70
2018-03-11T02:27:52.655Z,12.00
2018-03-11T02:28:52.641Z,13.20
2018-03-11T02:29:52.610Z,12.50
2018-03-11T02:30:52.600Z,12.50
2018-03-11T02:31:52.576Z,13.40
2018-03-11T02:32:52.554Z,12.70
2018-03-11T02:33:52.531Z,12.50
2018-03-11T02:34:52.516Z,13.00
2018-03-11T02:35:52.493Z,12.20
2018-03-11T02:36:52.472Z,11.80
2018-03-11T02:37:52.457Z,11.80
2018-03-11T02:38:52.429Z,11.90
2018-03-11T02:39:52.407Z,11.20
2018-03-11T02:40:52.388Z,10.90
2018-03-11T02:41:52.370Z,9.70
2018-03-11T02:42:52.347Z,9.60
2018-03-11T02:43:52.326Z,10.00
2018-03-11T02:44:52.307Z,10.00
2018-03-11T02:45:52.305Z,10.00
2018-03-11T02:46:52.267Z,9.20
2018-03-11T02:47:52.245Z,10.30
2018-03-11T02:48:52.225Z,9.90
2018-03-11T02:49:52.205Z,10.90
2018-03-11T02:50:52.196Z,9.80
2018-03-11T02:51:52.163Z,19.50
2018-03-11T02:52:52.147Z,12.20
2018-03-11T02:53:52.123Z,12.40
2018-03-11T02:54:52.101Z,11.90
2018-03-11T02:55:52.086Z,10.60
2018-03-11T02:56:52.060Z,10.50
2018-03-11T02:57:52.042Z,9.80
2018-03-11T02:58:52.069Z,10.30
2018-03-11T02:59:51.997Z,11.10
2018-03-11T03:00:51.982Z,10.10
2018-03-11T03:01:51.964Z,10.30
2018-03-11T03:02:51.937Z,10.70
2018-03-11T03:03:51.915Z,11.50
2018-03-11T03:04:51.894Z,10.60
2018-03-11T03:05:51.875Z,15.40
2018-03-11T03:06:51.855Z,13.60
2018-03-11T03:07:51.836Z,12.20
2018-03-11T03:08:51.819Z,11.70
2018-03-11T03:09:51.792Z,11.80
2018-03-11T03:10:51.822Z,14.30
2018-03-11T03:11:51.754Z,20.40
2018-03-11T03:12:51.736Z,15.20
2018-03-11T03:13:51.711Z,12.70
2018-03-11T03:14:51.741Z,12.20
2018-03-11T03:15:51.673Z,12.10
2018-03-11T03:16:51.674Z,13.20
2018-03-11T03:17:51.628Z,12.00
2018-03-11T03:18:51.705Z,12.10
2018-03-11T03:19:51.596Z,19.00
2018-03-11T03:20:51.615Z,21.70
2018-03-11T03:21:51.545Z,12.80
2018-03-11T03:22:51.521Z,13.60
2018-03-11T03:23:51.504Z,15.30
2018-03-11T03:24:51.584Z,19.60
2018-03-11T03:25:51.462Z,19.00
2018-03-11T03:26:51.443Z,15.50
2018-03-11T03:27:51.418Z,14.80
2018-03-11T03:28:51.451Z,14.50
2018-03-11T03:29:51.378Z,13.90
2018-03-11T03:30:51.519Z,14.70
2018-03-11T03:31:51.334Z,14.20
2018-03-11T03:32:51.367Z,12.80
2018-03-11T03:33:51.296Z,12.80
2018-03-11T03:34:51.375Z,12.70
2018-03-11T03:35:51.251Z,13.70
2018-03-11T03:36:51.235Z,11.40
2018-03-11T03:37:51.215Z,11.60
2018-03-11T03:38:51.283Z,12.10
2018-03-11T03:39:51.177Z,12.40
2018-03-11T03:40:51.255Z,12.60
2018-03-11T03:41:51.129Z,13.00
2018-03-11T03:42:51.112Z,13.40
2018-03-11T03:43:51.088Z,12.60
2018-03-11T03:44:51.167Z,12.30
2018-03-11T03:45:51.045Z,12.20
2018-03-11T03:46:51.061Z,14.00
2018-03-11T03:47:51.006Z,13.00
2018-03-11T03:48:50.985Z,14.20
2018-03-11T03:49:50.963Z,14.50
2018-03-11T03:50:50.941Z,12.70
2018-03-11T03:51:50.925Z,12.60
2018-03-11T03:52:50.904Z,13.00
2018-03-11T03:53:50.885Z,11.50
2018-03-11T03:54:50.863Z,12.20
2018-03-11T03:55:50.839Z,12.60
2018-03-11T03:56:50.819Z,11.70
2018-03-11T03:57:50.800Z,13.60
2018-03-11T03:58:50.776Z,14.90
2018-03-11T03:59:50.755Z,15.10
2018-03-11T04:00:50.736Z,14.90
2018-03-11T04:01:50.715Z,13.20
2018-03-11T04:02:50.694Z,13.20
2018-03-11T04:03:50.676Z,12.80
2018-03-11T04:04:50.655Z,12.70
2018-03-11T04:05:50.634Z,13.40
2018-03-11T04:06:50.609Z,13.40
2018-03-11T04:07:50.595Z,13.20
2018-03-11T04:08:50.570Z,15.60
2018-03-11T04:09:50.548Z,14.90
2018-03-11T04:10:50.532Z,13.90
2018-03-11T04:11:50.504Z,13.80
2018-03-11T04:12:50.484Z,13.70
2018-03-11T04:13:50.465Z,13.10
2018-03-11T04:14:50.444Z,12.70
2018-03-11T04:15:50.431Z,12.60
2018-03-11T04:16:50.403Z,12.80
2018-03-11T04:17:50.382Z,12.20
2018-03-11T04:18:50.364Z,14.00
2018-03-11T04:19:50.341Z,12.90
2018-03-11T04:20:50.319Z,13.20
2018-03-11T04:21:50.301Z,12.90
2018-03-11T04:22:50.281Z,12.30
2018-03-11T04:23:50.253Z,13.00
2018-03-11T04:24:50.240Z,12.60
2018-03-11T04:25:50.214Z,12.50
2018-03-11T04:26:50.194Z,13.40
2018-03-11T04:27:50.172Z,12.70
2018-03-11T04:28:50.154Z,13.20
2018-03-11T04:29:50.134Z,13.30
2018-03-11T04:30:50.108Z,12.80
2018-03-11T04:31:50.089Z,13.90
2018-03-11T04:32:50.067Z,12.80
2018-03-11T04:33:50.048Z,14.60
2018-03-11T04:34:50.025Z,13.40
2018-03-11T04:35:50.008Z,13.40
2018-03-11T04:36:49.983Z,13.10
2018-03-11T04:37:49.964Z,13.60
2018-03-11T04:38:49.941Z,14.70
2018-03-11T04:39:49.919Z,14.50
2018-03-11T04:40:49.906Z,13.50
2018-03-11T04:41:49.880Z,13.70
2018-03-11T04:42:49.855Z,14.00
2018-03-11T04:43:49.839Z,13.60
2018-03-11T04:44:49.820Z,13.80
2018-03-11T04:45:49.847Z,12.30
2018-03-11T04:46:49.777Z,12.70
2018-03-11T04:47:49.792Z,14.20
2018-03-11T04:48:49.731Z,13.50
2018-03-11T04:49:49.712Z,20.80
2018-03-11T04:50:49.688Z,15.40
2018-03-11T04:51:49.668Z,14.50
2018-03-11T04:52:49.649Z,13.30
2018-03-11T04:53:49.624Z,11.90
2018-03-11T04:54:49.605Z,13.20
2018-03-11T04:55:49.586Z,12.70
2018-03-11T04:56:49.560Z,11.80
2018-03-11T04:57:49.547Z,12.30
2018-03-11T04:58:49.520Z,12.20
2018-03-11T04:59:49.498Z,12.50
2018-03-11T05:00:49.479Z,13.30
2018-03-11T05:01:49.458Z,13.40
2018-03-11T05:02:49.434Z,13.30
2018-03-11T05:03:49.417Z,14.60
2018-03-11T05:04:49.397Z,15.30
2018-03-11T05:05:49.372Z,16.30
2018-03-11T05:06:49.351Z,17.10
2018-03-11T05:07:49.333Z,16.00
2018-03-11T05:08:49.310Z,17.60
2018-03-11T05:09:49.292Z,16.10
2018-03-11T05:10:49.266Z,16.10
2018-03-11T05:11:49.246Z,16.50
2018-03-11T05:12:49.225Z,18.60
2018-03-11T05:13:49.204Z,37.80
2018-03-11T05:14:49.210Z,24.60
2018-03-11T05:15:49.166Z,21.40
2018-03-11T05:16:49.139Z,29.90
2018-03-11T05:17:49.128Z,31.40
2018-03-11T05:18:49.095Z,26.20
2018-03-11T05:19:49.075Z,26.50
2018-03-11T05:20:49.054Z,20.80
2018-03-11T05:21:49.036Z,22.40
2018-03-11T05:22:49.012Z,30.60
2018-03-11T05:23:48.991Z,37.00
2018-03-11T05:24:48.969Z,31.30
2018-03-11T05:25:48.968Z,31.60
2018-03-11T05:26:48.928Z,32.00
2018-03-11T05:27:48.905Z,24.80
2018-03-11T05:28:48.886Z,28.90
2018-03-11T05:29:48.873Z,27.40
2018-03-11T05:30:48.845Z,32.00
2018-03-11T05:31:48.825Z,33.20
2018-03-11T05:32:48.800Z,40.20
2018-03-11T05:33:48.781Z,35.40
2018-03-11T05:34:48.761Z,33.10
2018-03-11T05:35:48.737Z,36.00
2018-03-11T05:36:48.715Z,34.40
2018-03-11T05:37:48.701Z,34.20
2018-03-11T05:38:48.675Z,33.70
2018-03-11T05:39:48.655Z,28.20
2018-03-11T05:40:48.634Z,25.60
2018-03-11T05:41:48.610Z,25.50
2018-03-11T05:42:48.592Z,27.60
2018-03-11T05:43:48.571Z,26.60
2018-03-11T05:44:48.547Z,22.00
2018-03-11T05:45:48.525Z,21.50
2018-03-11T05:46:48.506Z,20.80
2018-03-11T05:47:48.492Z,21.20
2018-03-11T05:48:48.467Z,19.30
2018-03-11T05:49:48.444Z,19.10
2018-03-11T05:50:48.420Z,18.20
2018-03-11T05:51:48.403Z,23.10
2018-03-11T05:52:48.377Z,29.50
2018-03-11T05:53:48.363Z,26.70
2018-03-11T05:54:48.336Z,23.40
2018-03-11T05:55:48.317Z,31.20
2018-03-11T05:56:48.303Z,31.40
2018-03-11T05:57:48.275Z,27.70
2018-03-11T05:58:48.254Z,26.40
2018-03-11T05:59:48.230Z,26.00
2018-03-11T06:00:48.212Z,32.90
2018-03-11T06:01:48.192Z,28.30
2018-03-11T06:02:48.167Z,32.70
2018-03-11T06:03:48.148Z,32.70
2018-03-11T06:04:48.126Z,33.10
2018-03-11T06:05:48.111Z,34.50
2018-03-11T06:06:48.087Z,29.80
2018-03-11T06:07:48.064Z,29.30
2018-03-11T06:08:48.046Z,36.30
2018-03-11T06:09:48.025Z,32.70
2018-03-11T06:10:48.002Z,33.80
2018-03-11T06:11:47.993Z,36.20
2018-03-11T06:12:47.974Z,32.10
2018-03-11T06:13:47.990Z,30.30
2018-03-11T06:14:47.921Z,34.60
2018-03-11T06:15:47.896Z,36.20
2018-03-11T06:16:47.876Z,35.40
2018-03-11T06:17:47.866Z,32.60
2018-03-11T06:18:47.835Z,36.60
2018-03-11T06:19:47.816Z,38.50
2018-03-11T06:20:47.794Z,31.10
2018-03-11T06:21:47.775Z,30.40
2018-03-11T06:22:47.752Z,29.50
2018-03-11T06:23:47.732Z,31.60
2018-03-11T06:24:47.714Z,29.40
2018-03-11T06:25:47.724Z,30.50
2018-03-11T06:26:47.668Z,33.30
2018-03-11T06:27:47.652Z,36.60
2018-03-11T06:28:47.629Z,30.50
2018-03-11T06:29:47.612Z,35.80
2018-03-11T06:30:47.597Z,38.30
2018-03-11T06:31:47.641Z,30.90
2018-03-11T06:32:47.548Z,38.70
2018-03-11T06:33:47.525Z,31.30
2018-03-11T06:34:47.505Z,31.90
2018-03-11T06:35:47.483Z,30.70
2018-03-11T06:36:47.463Z,33.20
2018-03-11T06:37:47.447Z,35.40
2018-03-11T06:38:47.422Z,33.90
2018-03-11T06:39:47.410Z,30.90
2018-03-11T06:40:47.383Z,34.50
2018-03-11T06:41:47.366Z,31.40
2018-03-11T06:42:47.440Z,40.90
2018-03-11T06:43:47.322Z,29.20
2018-03-11T06:44:47.301Z,40.80
2018-03-11T06:45:47.280Z,33.10
2018-03-11T06:46:47.266Z,39.20
2018-03-11T06:47:47.308Z,42.00
2018-03-11T06:48:47.273Z,38.80
2018-03-11T06:49:47.200Z,36.40
2018-03-11T06:50:47.175Z,38.70
2018-03-11T06:51:47.161Z,40.70
2018-03-11T06:52:47.142Z,37.60
2018-03-11T06:53:47.121Z,37.90
2018-03-11T06:54:47.103Z,37.40
2018-03-11T06:55:47.078Z,35.90
2018-03-11T06:56:47.061Z,38.00
2018-03-11T06:57:47.091Z,42.60
2018-03-11T06:58:47.013Z,31.90
2018-03-11T06:59:46.997Z,41.50
2018-03-11T07:00:46.976Z,38.60
2018-03-11T07:01:46.962Z,41.50
2018-03-11T07:02:46.939Z,33.00
2018-03-11T07:03:46.966Z,33.20
2018-03-11T07:04:46.898Z,35.20
2018-03-11T07:05:46.884Z,37.90
2018-03-11T07:06:46.860Z,36.90
2018-03-11T07:07:46.843Z,38.40
2018-03-11T07:08:46.821Z,35.30
2018-03-11T07:09:46.801Z,36.60
2018-03-11T07:10:46.780Z,38.00
2018-03-11T07:11:46.762Z,34.90
2018-03-11T07:12:46.740Z,35.30
2018-03-11T07:13:46.722Z,36.90
2018-03-11T07:14:46.699Z,36.50
2018-03-11T07:15:46.681Z,40.60
2018-03-11T07:16:46.667Z,38.60
2018-03-11T07:17:46.645Z,38.00
2018-03-11T07:18:46.619Z,36.00
2018-03-11T07:19:46.602Z,37.20
2018-03-11T07:20:46.741Z,35.20
2018-03-11T07:21:46.565Z,35.90
2018-03-11T07:22:46.539Z,35.70
2018-03-11T07:23:46.534Z,32.80
2018-03-11T07:24:46.508Z,40.20
2018-03-11T07:25:46.488Z,35.60
2018-03-11T07:26:46.466Z,35.80
2018-03-11T07:27:46.647Z,37.00
2018-03-11T07:28:46.483Z,34.40
2018-03-11T07:29:46.414Z,34.30
2018-03-11T07:30:46.395Z,37.50
2018-03-11T07:31:46.382Z,33.20
2018-03-11T07:32:46.406Z,33.30
2018-03-11T07:33:46.436Z,34.30
2018-03-11T07:34:46.322Z,34.20
2018-03-11T07:35:46.304Z,34.60
2018-03-11T07:36:46.434Z,32.80
2018-03-11T07:37:46.267Z,33.50
2018-03-11T07:38:46.252Z,33.60
2018-03-11T07:39:46.229Z,36.20
2018-03-11T07:40:46.206Z,31.10
2018-03-11T07:41:46.190Z,28.90
2018-03-11T07:42:46.177Z,31.80
2018-03-11T07:43:46.158Z,31.50
2018-03-11T07:44:46.138Z,31.80
2018-03-11T07:45:46.123Z,32.60
2018-03-11T07:46:46.103Z,27.70
2018-03-11T07:47:46.086Z,29.90
2018-03-11T07:48:46.065Z,29.30
2018-03-11T07:49:46.051Z,29.90
2018-03-11T07:50:46.032Z,29.40
2018-03-11T07:51:46.064Z,29.70
2018-03-11T07:52:45.997Z,28.00
2018-03-11T07:53:45.984Z,28.20
2018-03-11T07:54:45.965Z,28.40
2018-03-11T07:55:45.949Z,26.80
2018-03-11T07:56:45.920Z,28.20
2018-03-11T07:57:45.911Z,26.90
2018-03-11T07:58:45.892Z,27.60
2018-03-11T07:59:45.881Z,27.60
2018-03-11T08:00:45.856Z,28.50
2018-03-11T08:01:45.947Z,28.40
2018-03-11T08:02:45.824Z,26.30
2018-03-11T08:03:45.813Z,29.40
2018-03-11T08:04:45.794Z,26.00
2018-03-11T08:05:45.778Z,27.00
2018-03-11T08:06:47.682Z,26.70
2018-03-11T08:07:45.743Z,27.30
2018-03-11T08:08:45.729Z,26.90
2018-03-11T08:09:45.710Z,26.10
2018-03-11T08:10:45.687Z,26.90
2018-03-11T08:11:45.682Z,24.80
2018-03-11T08:12:45.660Z,26.20
2018-03-11T08:13:45.646Z,28.40
2018-03-11T08:14:45.629Z,25.10
2018-03-11T08:15:45.615Z,26.00
2018-03-11T08:16:45.646Z,25.10
2018-03-11T08:17:45.582Z,25.80
2018-03-11T08:18:45.570Z,25.10
2018-03-11T08:19:45.552Z,25.30
2018-03-11T08:20:45.532Z,25.40
2018-03-11T08:21:45.519Z,25.70
2018-03-11T08:22:45.506Z,25.40
2018-03-11T08:23:45.493Z,25.80
2018-03-11T08:24:45.473Z,23.90
2018-03-11T08:25:45.466Z,23.70
2018-03-11T08:26:45.445Z,24.10
2018-03-11T08:27:45.505Z,24.10
2018-03-11T08:28:45.419Z,24.60
2018-03-11T08:29:45.497Z,23.90
2018-03-11T08:30:45.395Z,24.70
2018-03-11T08:31:45.381Z,23.50
2018-03-11T08:32:45.370Z,24.00
2018-03-11T08:33:45.364Z,23.30
2018-03-11T08:34:45.345Z,22.60
2018-03-11T08:35:45.339Z,22.40
2018-03-11T08:36:45.332Z,23.00
2018-03-11T08:37:45.365Z,22.60
2018-03-11T08:38:45.302Z,22.50
2018-03-11T08:39:45.294Z,22.60
2018-03-11T08:40:45.481Z,22.20
2018-03-11T08:41:45.332Z,22.50
2018-03-11T08:42:45.322Z,22.40
2018-03-11T08:43:45.267Z,22.00
2018-03-11T08:44:45.358Z,23.30
2018-03-11T08:45:45.244Z,22.70
2018-03-11T08:46:45.237Z,22.90
2018-03-11T08:47:45.235Z,21.60
2018-03-11T08:48:45.227Z,22.00
2018-03-11T08:49:45.221Z,21.90
2018-03-11T08:50:45.213Z,22.10
2018-03-11T08:51:45.203Z,21.40
2018-03-11T08:52:45.201Z,20.00
2018-03-11T08:53:45.299Z,21.60
2018-03-11T08:54:45.196Z,20.90
2018-03-11T08:55:45.193Z,22.00
2018-03-11T08:56:45.181Z,21.00
2018-03-11T08:57:45.183Z,21.90
2018-03-11T08:58:45.179Z,21.10
2018-03-11T08:59:45.176Z,20.80
2018-03-11T09:00:45.171Z,20.40
2018-03-11T09:01:45.171Z,19.40
2018-03-11T09:02:45.169Z,19.80
2018-03-11T09:03:45.163Z,19.10
2018-03-11T09:04:45.231Z,19.10
2018-03-11T09:05:45.215Z,19.50
2018-03-11T09:06:45.292Z,19.70
2018-03-11T09:07:45.152Z,20.30
2018-03-11T09:08:45.158Z,20.00
2018-03-11T09:09:45.155Z,19.50
2018-03-11T09:10:45.243Z,21.10
2018-03-11T09:11:45.152Z,19.40
2018-03-11T09:12:45.153Z,19.80
2018-03-11T09:13:45.203Z,19.00
2018-03-11T09:14:45.249Z,19.60
2018-03-11T09:15:45.199Z,19.30
2018-03-11T09:16:45.148Z,18.80
2018-03-11T09:17:45.148Z,18.40
2018-03-11T09:18:45.246Z,18.70
2018-03-11T09:19:45.147Z,19.20
2018-03-11T09:20:45.149Z,17.80
2018-03-11T09:21:45.153Z,18.40
2018-03-11T09:22:45.147Z,17.50
2018-03-11T09:23:45.204Z,17.40
2018-03-11T09:24:45.150Z,17.20
2018-03-11T09:25:45.152Z,17.60
2018-03-11T09:26:45.224Z,17.20
2018-03-11T09:27:45.150Z,18.50
2018-03-11T09:28:45.202Z,16.70
2018-03-11T09:29:45.166Z,16.10
2018-03-11T09:30:45.157Z,17.20
2018-03-11T09:31:45.165Z,15.90
2018-03-11T09:32:45.167Z,16.50
2018-03-11T09:33:45.171Z,15.60
2018-03-11T09:34:45.218Z,15.00
2018-03-11T09:35:45.223Z,15.20
2018-03-11T09:36:45.176Z,16.00
2018-03-11T09:37:45.173Z,16.30
2018-03-11T09:38:45.223Z,15.20
2018-03-11T09:39:45.181Z,14.70
2018-03-11T09:40:45.175Z,17.90
2018-03-11T09:41:45.184Z,16.40
2018-03-11T09:42:45.234Z,14.40
2018-03-11T09:43:45.185Z,14.00
2018-03-11T09:44:45.183Z,14.20
2018-03-11T09:45:45.191Z,15.10
2018-03-11T09:46:45.198Z,15.40
2018-03-11T09:47:45.206Z,14.30
2018-03-11T09:48:45.205Z,14.70
2018-03-11T09:49:45.211Z,14.50
2018-03-11T09:50:45.208Z,14.30
2018-03-11T09:51:45.211Z,13.60
2018-03-11T09:52:45.216Z,14.60
2018-03-11T09:53:45.222Z,13.50
2018-03-11T09:54:45.221Z,14.10
2018-03-11T09:55:45.232Z,14.00
2018-03-11T09:56:45.296Z,13.90
2018-03-11T09:57:45.232Z,13.90
2018-03-11T09:58:45.297Z,13.30
2018-03-11T09:59:45.237Z,15.80
2018-03-11T10:00:45.255Z,13.20
2018-03-11T10:01:45.240Z,12.50
2018-03-11T10:02:45.247Z,13.30
2018-03-11T10:03:45.291Z,13.50
2018-03-11T10:04:45.260Z,12.20
2018-03-11T10:05:45.257Z,11.50
2018-03-11T10:06:45.263Z,10.60
2018-03-11T10:07:45.271Z,10.70
2018-03-11T10:08:45.271Z,11.30
2018-03-11T10:09:45.275Z,11.90
2018-03-11T10:10:45.279Z,11.90
2018-03-11T10:11:45.285Z,12.30
2018-03-11T10:12:45.283Z,10.60
2018-03-11T10:13:45.287Z,11.50
2018-03-11T10:14:45.296Z,11.00
2018-03-11T10:15:45.299Z,9.90
2018-03-11T10:16:45.300Z,10.00
2018-03-11T10:17:45.308Z,10.90
2018-03-11T10:18:45.308Z,11.40
2018-03-11T10:19:45.318Z,10.20
2018-03-11T10:20:45.322Z,9.40
2018-03-11T10:21:45.324Z,9.80
2018-03-11T10:22:45.325Z,9.90
2018-03-11T10:23:45.332Z,10.00
2018-03-11T10:24:45.337Z,9.60
2018-03-11T10:25:45.406Z,9.40
2018-03-11T10:26:45.345Z,10.50
2018-03-11T10:27:45.349Z,9.50
2018-03-11T10:28:45.361Z,8.50
2018-03-11T10:29:45.369Z,9.00
2018-03-11T10:30:45.366Z,8.70
2018-03-11T10:31:45.366Z,9.90
2018-03-11T10:32:45.373Z,9.30
2018-03-11T10:33:45.378Z,7.80
2018-03-11T10:34:45.384Z,8.20
2018-03-11T10:35:45.384Z,7.90
2018-03-11T10:36:45.391Z,8.10
2018-03-11T10:37:45.396Z,7.70
2018-03-11T10:38:45.399Z,7.30
2018-03-11T10:39:45.405Z,7.50
2018-03-11T10:40:45.559Z,7.00
2018-03-11T10:41:45.418Z,7.00
2018-03-11T10:42:45.418Z,7.40
2018-03-11T10:43:45.422Z,6.60
2018-03-11T10:44:45.435Z,6.40
2018-03-11T10:45:45.431Z,6.60
2018-03-11T10:46:45.499Z,6.00
2018-03-11T10:47:45.443Z,7.10
2018-03-11T10:48:45.458Z,6.80
2018-03-11T10:49:45.502Z,6.80
2018-03-11T10:50:45.527Z,6.60
2018-03-11T10:51:45.467Z,7.30
2018-03-11T10:52:45.471Z,5.70
2018-03-11T10:53:45.474Z,5.20
2018-03-11T10:54:45.478Z,6.70
2018-03-11T10:55:45.491Z,6.70
2018-03-11T10:56:45.496Z,5.40
2018-03-11T10:57:45.500Z,5.40
2018-03-11T10:58:45.500Z,6.20
2018-03-11T10:59:45.506Z,6.10
2018-03-11T11:00:45.506Z,6.10
2018-03-11T11:01:45.607Z,6.10
2018-03-11T11:02:45.518Z,5.20
2018-03-11T11:03:45.525Z,5.30
2018-03-11T11:04:45.525Z,4.90
2018-03-11T11:05:45.536Z,5.40
2018-03-11T11:06:45.552Z,5.30
2018-03-11T11:07:45.650Z,5.30
2018-03-11T11:08:45.561Z,5.20
2018-03-11T11:09:45.611Z,5.40
2018-03-11T11:10:45.558Z,4.80
2018-03-11T11:11:45.615Z,5.00
2018-03-11T11:12:45.568Z,4.70
2018-03-11T11:13:45.576Z,4.50
2018-03-11T11:14:45.589Z,4.60
2018-03-11T11:15:45.586Z,4.80
2018-03-11T11:16:45.593Z,5.20
2018-03-11T11:17:45.600Z,4.20
2018-03-11T11:18:45.603Z,5.50
2018-03-11T11:19:45.613Z,4.90
2018-03-11T11:20:45.618Z,5.40
2018-03-11T11:21:45.625Z,3.90
2018-03-11T11:22:45.635Z,3.30
2018-03-11T11:23:45.641Z,3.90
2018-03-11T11:24:45.748Z,4.60
2018-03-11T11:25:45.651Z,4.00
2018-03-11T11:26:45.657Z,3.30
2018-03-11T11:27:45.663Z,3.70
2018-03-11T11:28:45.720Z,3.40
2018-03-11T11:29:45.676Z,3.80
2018-03-11T11:30:45.730Z,3.60
2018-03-11T11:31:45.694Z,3.70
2018-03-11T11:32:45.696Z,3.60
2018-03-11T11:33:45.708Z,3.40
2018-03-11T11:34:45.712Z,3.60
2018-03-11T11:35:45.714Z,3.00
2018-03-11T11:36:45.733Z,2.70
2018-03-11T11:37:45.725Z,2.50
2018-03-11T11:38:45.734Z,2.70
2018-03-11T11:39:45.738Z,2.10
2018-03-11T11:40:45.746Z,2.20
2018-03-11T11:41:45.747Z,2.30
2018-03-11T11:42:45.755Z,2.20
2018-03-11T11:43:45.773Z,2.80
2018-03-11T11:44:45.765Z,2.20
2018-03-11T11:45:45.780Z,2.60
2018-03-11T11:46:45.773Z,2.40
2018-03-11T11:47:45.791Z,2.60
2018-03-11T11:48:45.855Z,3.10
2018-03-11T11:49:45.797Z,2.40
2018-03-11T11:50:45.793Z,2.80
2018-03-11T11:51:45.844Z,3.10
2018-03-11T11:52:45.798Z,3.60
2018-03-11T11:53:45.801Z,3.00
2018-03-11T11:54:45.801Z,3.20
2018-03-11T11:55:45.806Z,3.60
2018-03-11T11:56:45.812Z,3.10
2018-03-11T11:57:45.811Z,3.50
2018-03-11T11:58:45.812Z,3.60
2018-03-11T11:59:45.814Z,2.90
2018-03-11T12:00:45.844Z,3.30
2018-03-11T12:01:45.818Z,4.70
2018-03-11T12:02:45.818Z,4.60
2018-03-11T12:03:45.818Z,4.10
2018-03-11T12:04:45.818Z,4.40
2018-03-11T12:05:45.820Z,4.40
2018-03-11T12:06:45.937Z,5.10
2018-03-11T12:07:45.820Z,5.40
2018-03-11T12:08:45.820Z,4.90
2018-03-11T12:09:45.821Z,5.00
2018-03-11T12:10:45.821Z,5.70
2018-03-11T12:11:45.815Z,4.80
2018-03-11T12:12:45.895Z,4.60
2018-03-11T12:13:45.818Z,5.30
2018-03-11T12:14:45.866Z,4.80
2018-03-11T12:15:45.814Z,4.60
2018-03-11T12:16:45.854Z,4.40
2018-03-11T12:17:45.807Z,4.50
2018-03-11T12:18:45.805Z,4.00
2018-03-11T12:19:45.802Z,4.00
2018-03-11T12:20:45.799Z,4.10
2018-03-11T12:21:45.796Z,4.30
2018-03-11T12:22:45.799Z,4.80
2018-03-11T12:23:45.790Z,4.40
2018-03-11T12:24:45.787Z,4.50
2018-03-11T12:25:45.784Z,4.00
2018-03-11T12:26:45.785Z,4.90
2018-03-11T12:27:45.785Z,4.40
2018-03-11T12:28:45.796Z,4.50
2018-03-11T12:29:45.771Z,3.90
2018-03-11T12:30:45.771Z,4.30
2018-03-11T12:31:45.769Z,5.20
2018-03-11T12:32:45.766Z,4.10
2018-03-11T12:33:45.764Z,4.30
2018-03-11T12:34:45.758Z,4.30
2018-03-11T12:35:45.755Z,4.00
2018-03-11T12:36:45.763Z,4.30
2018-03-11T12:37:45.758Z,4.50
2018-03-11T12:38:45.756Z,4.20
2018-03-11T12:39:45.755Z,4.70
2018-03-11T12:40:45.749Z,4.80
2018-03-11T12:41:45.790Z,4.70
2018-03-11T12:42:45.742Z,4.80
2018-03-11T12:43:45.787Z,4.50
2018-03-11T12:44:45.749Z,4.20
2018-03-11T12:45:45.789Z,4.60
2018-03-11T12:46:45.742Z,4.60
2018-03-11T12:47:45.838Z,4.00
2018-03-11T12:48:45.735Z,4.40
2018-03-11T12:49:45.794Z,5.00
2018-03-11T12:50:45.732Z,4.90
2018-03-11T12:51:45.735Z,5.40
2018-03-11T12:52:45.730Z,5.20
2018-03-11T12:53:45.735Z,5.40
2018-03-11T12:54:45.727Z,5.40
2018-03-11T12:55:45.727Z,5.20
2018-03-11T12:56:45.727Z,4.40
2018-03-11T12:57:45.723Z,4.20